createdAt,value
2022-09-13T00:02:55.680Z,6.67
2022-09-13T00:05:57.934Z,6.75
2022-09-13T00:09:01.738Z,6.77
2022-09-13T00:12:04.400Z,6.77
2022-09-13T00:15:07.105Z,6.77
2022-09-13T00:18:08.775Z,6.81
2022-09-13T00:21:16.759Z,6.86
2022-09-13T00:24:20.215Z,6.94
2022-09-13T00:27:21.888Z,7.03
2022-09-13T00:30:26.521Z,7.09
2022-09-13T00:33:31.199Z,7.16
2022-09-13T00:36:32.923Z,7.27
2022-09-13T00:39:37.132Z,7.35
2022-09-13T00:42:39.033Z,7.43
2022-09-13T00:45:43.290Z,7.54
2022-09-13T00:48:46.979Z,7.62
2022-09-13T00:52:05.348Z,7.68
2022-09-13T00:55:36.007Z,7.71
2022-09-13T00:58:47.233Z,7.71
2022-09-13T01:01:52.404Z,7.75
2022-09-13T01:04:54.218Z,7.71
2022-09-13T01:07:56.614Z,7.67
2022-09-13T01:11:00.286Z,7.65
2022-09-13T01:14:01.964Z,7.63
2022-09-13T01:17:04.242Z,7.61
2022-09-13T01:20:07.928Z,7.60
2022-09-13T01:23:40.881Z,7.57
2022-09-13T01:26:54.641Z,7.55
2022-09-13T01:30:03.298Z,7.53
2022-09-13T01:33:24.074Z,7.53
2022-09-13T01:36:54.980Z,7.56
2022-09-13T01:39:59.371Z,7.52
2022-09-13T01:43:11.886Z,7.36
2022-09-13T01:46:27.030Z,7.31
2022-09-13T01:49:46.181Z,7.30
2022-09-13T01:53:06.328Z,7.20
2022-09-13T01:56:16.402Z,7.08
2022-09-13T01:59:28.409Z,6.99
2022-09-13T02:02:51.266Z,7.07
2022-09-13T02:06:00.141Z,7.17
2022-09-13T02:09:04.793Z,7.16
2022-09-13T02:12:11.205Z,7.16
2022-09-13T02:15:18.905Z,7.10
2022-09-13T02:18:35.470Z,7.04
2022-09-13T02:21:40.085Z,7.02
2022-09-13T02:24:45.627Z,6.99
2022-09-13T02:27:51.571Z,6.95
2022-09-13T02:30:54.021Z,6.90
2022-09-13T02:34:00.634Z,6.86
2022-09-13T02:37:03.318Z,6.84
2022-09-13T02:40:10.485Z,6.87
2022-09-13T02:43:16.192Z,6.87
2022-09-13T02:46:30.085Z,6.87
2022-09-13T02:49:47.532Z,6.86
2022-09-13T02:53:07.953Z,6.84
2022-09-13T02:56:38.657Z,6.82
2022-09-13T02:59:40.601Z,6.78
2022-09-13T03:02:43.870Z,6.75
2022-09-13T03:05:45.602Z,6.71
2022-09-13T03:08:47.328Z,6.67
2022-09-13T03:11:51.930Z,6.64
2022-09-13T03:14:58.234Z,6.60
2022-09-13T03:18:06.186Z,6.54
2022-09-13T03:21:28.134Z,6.47
2022-09-13T03:24:55.603Z,6.39
2022-09-13T03:28:09.389Z,6.32
2022-09-13T03:31:21.243Z,6.25
2022-09-13T03:34:29.455Z,6.19
2022-09-13T03:37:53.808Z,6.15
2022-09-13T03:41:34.259Z,6.13
2022-09-13T03:44:37.226Z,6.08
2022-09-13T03:47:41.007Z,6.06
2022-09-13T03:50:43.601Z,6.08
2022-09-13T03:53:56.503Z,6.07
2022-09-13T03:57:09.842Z,5.96
2022-09-13T04:00:13.752Z,5.85
2022-09-13T04:03:15.804Z,5.81
2022-09-13T04:06:17.672Z,5.75
2022-09-13T04:09:19.426Z,5.73
2022-09-13T04:12:20.949Z,5.72
2022-09-13T04:15:22.799Z,5.71
2022-09-13T04:18:24.748Z,5.73
2022-09-13T04:21:26.458Z,5.71
2022-09-13T04:24:29.489Z,5.72
2022-09-13T04:27:31.339Z,5.78
2022-09-13T04:30:33.078Z,5.84
2022-09-13T04:33:37.415Z,5.91
2022-09-13T04:36:39.691Z,5.94
2022-09-13T04:39:41.483Z,5.97
2022-09-13T04:42:46.321Z,6.03
2022-09-13T04:45:48.227Z,6.10
2022-09-13T04:48:50.991Z,6.15
2022-09-13T04:51:52.720Z,6.20
2022-09-13T04:54:54.773Z,6.25
2022-09-13T04:57:56.581Z,6.32
2022-09-13T05:01:02.776Z,6.39
2022-09-13T05:04:06.248Z,6.47
2022-09-13T05:07:07.877Z,6.55
2022-09-13T05:10:09.693Z,6.67
2022-09-13T05:13:11.862Z,6.80
2022-09-13T05:16:13.563Z,6.94
2022-09-13T05:19:16.161Z,7.37
2022-09-13T05:22:18.138Z,7.96
2022-09-13T05:25:22.963Z,8.56
2022-09-13T05:28:29.383Z,9.07
2022-09-13T05:31:36.651Z,9.47
2022-09-13T05:34:38.482Z,9.80
2022-09-13T05:37:40.257Z,10.14
2022-09-13T05:40:42.202Z,10.39
2022-09-13T05:43:43.974Z,10.63
2022-09-13T05:46:49.448Z,10.87
2022-09-13T05:50:09.499Z,11.11
2022-09-13T05:53:12.471Z,11.32
2022-09-13T05:56:16.888Z,11.55
2022-09-13T05:59:18.946Z,11.81
2022-09-13T06:02:20.904Z,12.07
2022-09-13T06:05:22.706Z,12.21
2022-09-13T06:08:29.268Z,12.36
2022-09-13T06:11:33.774Z,12.53
2022-09-13T06:14:35.814Z,12.76
2022-09-13T06:17:37.832Z,13.12
2022-09-13T06:20:39.826Z,13.36
2022-09-13T06:23:41.717Z,13.58
2022-09-13T06:26:43.995Z,13.58
2022-09-13T06:29:45.874Z,13.72
2022-09-13T06:32:47.523Z,13.82
2022-09-13T06:35:52.074Z,14.03
2022-09-13T06:39:00.804Z,14.16
2022-09-13T06:42:05.882Z,14.31
2022-09-13T06:45:08.119Z,14.56
2022-09-13T06:48:18.678Z,14.85
2022-09-13T06:51:23.166Z,14.99
2022-09-13T06:54:25.038Z,15.29
2022-09-13T06:57:30.531Z,15.44
2022-09-13T07:00:32.964Z,15.74
2022-09-13T07:03:34.779Z,16.08
2022-09-13T07:06:38.498Z,16.37
2022-09-13T07:09:43.462Z,16.60
2022-09-13T07:12:45.269Z,17.03
2022-09-13T07:15:47.209Z,17.26
2022-09-13T07:18:53.545Z,17.54
2022-09-13T07:21:56.699Z,17.94
2022-09-13T07:24:58.689Z,18.19
2022-09-13T07:28:00.456Z,18.52
2022-09-13T07:31:33.114Z,18.52
2022-09-13T07:34:35.372Z,18.45
2022-09-13T07:37:37.210Z,18.53
2022-09-13T07:40:39.264Z,18.52
2022-09-13T07:43:41.873Z,18.77
2022-09-13T07:46:43.850Z,19.27
2022-09-13T07:49:46.896Z,19.38
2022-09-13T07:52:48.592Z,18.95
2022-09-13T07:55:50.363Z,18.43
2022-09-13T07:58:55.104Z,18.49
2022-09-13T08:01:57.402Z,18.75
2022-09-13T08:04:59.522Z,19.23
2022-09-13T08:08:01.460Z,19.54
2022-09-13T08:11:05.304Z,19.74
2022-09-13T08:14:09.092Z,19.93
2022-09-13T08:17:11.048Z,19.95
2022-09-13T08:20:12.806Z,19.98
2022-09-13T08:23:15.049Z,20.03
2022-09-13T08:26:17.131Z,19.93
2022-09-13T08:29:19.013Z,19.97
2022-09-13T08:32:20.764Z,20.29
2022-09-13T08:35:22.637Z,20.60
2022-09-13T08:38:24.602Z,20.65
2022-09-13T08:41:32.197Z,20.66
2022-09-13T08:44:37.613Z,20.84
2022-09-13T08:47:44.780Z,20.73
2022-09-13T08:50:47.617Z,20.30
2022-09-13T08:53:50.577Z,19.93
2022-09-13T08:57:21.330Z,19.82
2022-09-13T09:00:25.007Z,19.91
2022-09-13T09:03:43.128Z,20.06
2022-09-13T09:06:45.276Z,20.23
2022-09-13T09:09:55.036Z,20.42
2022-09-13T09:13:04.094Z,20.44
2022-09-13T09:16:43.089Z,20.74
2022-09-13T09:19:53.959Z,21.02
2022-09-13T09:22:56.054Z,21.16
2022-09-13T09:26:22.228Z,21.08
2022-09-13T09:29:30.051Z,21.31
2022-09-13T09:32:54.085Z,21.42
2022-09-13T09:36:01.238Z,21.93
2022-09-13T09:39:05.354Z,22.04
2022-09-13T09:42:19.769Z,21.96
2022-09-13T09:45:24.157Z,22.09
2022-09-13T09:48:29.876Z,22.42
2022-09-13T09:51:32.495Z,22.72
2022-09-13T09:54:35.304Z,22.55
2022-09-13T09:57:54.268Z,22.26
2022-09-13T10:00:58.155Z,22.30
2022-09-13T10:04:20.981Z,22.38
2022-09-13T10:07:34.553Z,22.04
2022-09-13T10:10:42.606Z,21.89
2022-09-13T10:14:02.598Z,22.06
2022-09-13T10:17:29.971Z,21.96
2022-09-13T10:20:34.956Z,21.97
2022-09-13T10:23:37.342Z,21.92
2022-09-13T10:26:39.634Z,21.92
2022-09-13T10:29:47.982Z,21.94
2022-09-13T10:32:56.115Z,21.82
2022-09-13T10:36:04.493Z,21.75
2022-09-13T10:39:18.530Z,21.82
2022-09-13T10:42:23.796Z,21.93
2022-09-13T10:45:27.877Z,22.11
2022-09-13T10:48:31.412Z,22.24
2022-09-13T10:51:36.968Z,22.08
2022-09-13T10:54:38.624Z,21.83
2022-09-13T10:57:40.481Z,21.77
2022-09-13T11:01:16.197Z,21.84
2022-09-13T11:04:36.981Z,21.89
2022-09-13T11:08:11.365Z,21.74
2022-09-13T11:11:37.567Z,21.57
2022-09-13T11:14:54.892Z,21.37
2022-09-13T11:18:09.601Z,21.15
2022-09-13T11:21:46.734Z,20.89
2022-09-13T11:25:27.995Z,20.72
2022-09-13T11:29:20.019Z,20.81
2022-09-13T11:32:55.896Z,21.32
2022-09-13T11:36:25.119Z,21.62
2022-09-13T11:40:09.539Z,21.53
2022-09-13T11:44:05.906Z,21.25
2022-09-13T11:47:11.691Z,21.05
2022-09-13T11:50:34.432Z,21.10
2022-09-13T11:54:02.060Z,21.15
2022-09-13T11:57:33.299Z,21.29
2022-09-13T12:00:40.681Z,21.37
2022-09-13T12:03:58.212Z,21.73
2022-09-13T12:07:03.602Z,22.09
2022-09-13T12:10:14.162Z,22.23
2022-09-13T12:13:28.137Z,22.51
2022-09-13T12:16:36.075Z,22.84
2022-09-13T12:19:47.090Z,22.85
2022-09-13T12:22:49.705Z,22.86
2022-09-13T12:26:07.869Z,22.82
2022-09-13T12:29:40.965Z,22.41
2022-09-13T12:32:47.533Z,22.28
2022-09-13T12:36:08.342Z,22.35
2022-09-13T12:39:41.229Z,22.42
2022-09-13T12:43:02.743Z,22.41
2022-09-13T12:46:33.896Z,22.11
2022-09-13T12:50:43.034Z,22.23
2022-09-13T12:53:47.616Z,22.25
2022-09-13T12:56:58.368Z,22.20
2022-09-13T13:00:14.233Z,22.08
2022-09-13T13:03:19.301Z,21.69
2022-09-13T13:06:26.241Z,21.24
2022-09-13T13:09:42.449Z,20.90
2022-09-13T13:12:44.817Z,20.69
2022-09-13T13:15:50.066Z,20.59
2022-09-13T13:18:59.659Z,20.47
2022-09-13T13:22:39.197Z,20.39
2022-09-13T13:26:13.596Z,20.47
2022-09-13T13:29:30.025Z,20.79
2022-09-13T13:32:32.332Z,21.03
2022-09-13T13:35:34.372Z,21.26
2022-09-13T13:38:48.194Z,21.38
2022-09-13T13:42:03.902Z,21.42
2022-09-13T13:45:20.118Z,21.42
2022-09-13T13:48:38.215Z,21.18
2022-09-13T13:51:39.973Z,20.88
2022-09-13T13:54:41.636Z,20.86
2022-09-13T13:58:00.160Z,21.22
2022-09-13T14:01:02.580Z,21.63
2022-09-13T14:04:30.283Z,21.81
2022-09-13T14:07:55.194Z,21.68
2022-09-13T14:11:18.862Z,21.56
2022-09-13T14:14:29.830Z,21.41
2022-09-13T14:18:03.938Z,21.28
2022-09-13T14:21:26.768Z,21.18
2022-09-13T14:24:28.437Z,21.41
2022-09-13T14:27:34.524Z,21.54
2022-09-13T14:30:38.433Z,21.50
2022-09-13T14:33:40.542Z,21.31
2022-09-13T14:36:52.575Z,21.04
2022-09-13T14:40:00.566Z,20.91
2022-09-13T14:43:15.453Z,20.86
2022-09-13T14:46:27.977Z,21.12
2022-09-13T14:49:33.920Z,21.31
2022-09-13T14:52:38.534Z,21.31
2022-09-13T14:55:47.771Z,21.21
2022-09-13T14:58:53.310Z,21.07
2022-09-13T15:01:58.541Z,20.94
2022-09-13T15:05:06.359Z,20.79
2022-09-13T15:08:34.904Z,20.67
2022-09-13T15:11:40.275Z,20.51
2022-09-13T15:14:43.607Z,20.42
2022-09-13T15:17:55.574Z,20.35
2022-09-13T15:20:59.649Z,20.26
2022-09-13T15:24:01.653Z,20.16
2022-09-13T15:27:20.931Z,20.07
2022-09-13T15:30:24.592Z,20.01
2022-09-13T15:33:31.946Z,19.97
2022-09-13T15:36:34.134Z,19.91
2022-09-13T15:39:51.773Z,19.82
2022-09-13T15:42:53.622Z,19.69
2022-09-13T15:45:57.290Z,19.62
2022-09-13T15:49:02.090Z,19.51
2022-09-13T15:52:05.767Z,19.38
2022-09-13T15:55:11.938Z,19.28
2022-09-13T15:58:13.738Z,19.19
2022-09-13T16:01:17.025Z,19.13
2022-09-13T16:04:19.415Z,19.07
2022-09-13T16:07:21.707Z,19.02
2022-09-13T16:10:23.754Z,18.94
2022-09-13T16:13:25.420Z,18.85
2022-09-13T16:16:27.157Z,18.76
2022-09-13T16:19:29.675Z,18.66
2022-09-13T16:22:31.636Z,18.58
2022-09-13T16:25:34.983Z,18.51
2022-09-13T16:28:37.016Z,18.44
2022-09-13T16:31:39.120Z,18.38
2022-09-13T16:34:41.062Z,18.28
2022-09-13T16:37:43.090Z,18.17
2022-09-13T16:40:45.717Z,18.09
2022-09-13T16:43:47.831Z,18.03
2022-09-13T16:46:50.016Z,17.96
2022-09-13T16:49:52.656Z,17.85
2022-09-13T16:52:54.699Z,17.75
2022-09-13T16:56:06.931Z,17.67
2022-09-13T16:59:09.799Z,17.54
2022-09-13T17:02:12.692Z,17.41
2022-09-13T17:05:15.185Z,17.33
2022-09-13T17:08:16.928Z,17.28
2022-09-13T17:11:21.406Z,17.24
2022-09-13T17:14:23.378Z,17.20
2022-09-13T17:17:25.920Z,17.16
2022-09-13T17:20:27.702Z,17.12
2022-09-13T17:23:29.571Z,17.07
2022-09-13T17:26:31.594Z,17.03
2022-09-13T17:29:34.899Z,16.97
2022-09-13T17:32:36.775Z,16.93
2022-09-13T17:35:38.985Z,16.90
2022-09-13T17:38:41.909Z,16.85
2022-09-13T17:41:43.840Z,16.81
2022-09-13T17:44:45.536Z,16.76
2022-09-13T17:47:48.043Z,16.72
2022-09-13T17:50:50.315Z,16.68
2022-09-13T17:53:58.804Z,16.64
2022-09-13T17:57:00.592Z,16.60
2022-09-13T18:00:05.505Z,16.56
2022-09-13T18:03:07.376Z,16.53
2022-09-13T18:06:10.424Z,16.50
2022-09-13T18:09:14.244Z,16.46
2022-09-13T18:12:15.906Z,16.41
2022-09-13T18:15:17.630Z,16.37
2022-09-13T18:18:19.673Z,16.32
2022-09-13T18:21:23.960Z,16.29
2022-09-13T18:24:25.859Z,16.27
2022-09-13T18:27:27.952Z,16.25
2022-09-13T18:30:29.933Z,16.24
2022-09-13T18:33:32.376Z,16.25
2022-09-13T18:36:35.282Z,16.26
2022-09-13T18:39:37.104Z,16.26
2022-09-13T18:42:40.926Z,16.24
2022-09-13T18:45:42.895Z,16.24
2022-09-13T18:48:47.116Z,16.22
2022-09-13T18:51:49.765Z,16.20
2022-09-13T18:54:51.474Z,16.22
2022-09-13T18:57:53.145Z,16.24
2022-09-13T19:01:03.238Z,16.24
2022-09-13T19:04:13.727Z,16.22
2022-09-13T19:07:15.315Z,16.18
2022-09-13T19:10:17.276Z,16.17
2022-09-13T19:13:19.162Z,16.16
2022-09-13T19:16:21.564Z,16.14
2022-09-13T19:19:24.666Z,16.11
2022-09-13T19:22:26.497Z,16.08
2022-09-13T19:25:30.305Z,16.06
2022-09-13T19:28:32.264Z,16.04
2022-09-13T19:31:36.575Z,16.03
2022-09-13T19:34:38.391Z,16.02
2022-09-13T19:37:39.989Z,16.01
2022-09-13T19:40:41.718Z,16.01
2022-09-13T19:43:44.600Z,16.00
2022-09-13T19:46:46.438Z,15.97
2022-09-13T19:49:50.445Z,15.97
2022-09-13T19:52:52.121Z,15.97
2022-09-13T19:55:55.279Z,15.96
2022-09-13T19:58:58.390Z,15.96
2022-09-13T20:02:00.153Z,15.95
2022-09-13T20:05:02.113Z,15.96
2022-09-13T20:08:04.048Z,15.97
2022-09-13T20:11:10.861Z,15.96
2022-09-13T20:14:14.840Z,15.95
2022-09-13T20:17:16.621Z,15.95
2022-09-13T20:20:18.889Z,15.94
2022-09-13T20:23:20.636Z,15.92
2022-09-13T20:26:26.975Z,15.91
2022-09-13T20:29:28.834Z,15.89
2022-09-13T20:32:31.419Z,15.83
2022-09-13T20:35:37.058Z,15.79
2022-09-13T20:38:39.430Z,15.76
2022-09-13T20:41:41.872Z,15.75
2022-09-13T20:44:45.999Z,15.73
2022-09-13T20:47:48.125Z,15.71
2022-09-13T20:51:01.153Z,15.69
2022-09-13T20:54:03.073Z,15.67
2022-09-13T20:57:04.977Z,15.66
2022-09-13T21:00:08.718Z,15.67
2022-09-13T21:03:11.245Z,15.66
2022-09-13T21:06:13.429Z,15.64
2022-09-13T21:09:15.474Z,15.62
2022-09-13T21:12:17.629Z,15.61
2022-09-13T21:15:20.058Z,15.62
2022-09-13T21:18:21.701Z,15.62
2022-09-13T21:21:26.087Z,15.62
2022-09-13T21:24:27.838Z,15.62
2022-09-13T21:27:29.873Z,15.61
2022-09-13T21:30:31.568Z,15.58
2022-09-13T21:33:34.041Z,15.55
2022-09-13T21:36:36.181Z,15.53
2022-09-13T21:39:37.830Z,15.52
2022-09-13T21:42:39.550Z,15.51
2022-09-13T21:45:41.329Z,15.51
2022-09-13T21:48:47.316Z,15.51
2022-09-13T21:51:49.997Z,15.51
2022-09-13T21:54:52.691Z,15.52
2022-09-13T21:57:54.520Z,15.53
2022-09-13T22:01:04.868Z,15.53
2022-09-13T22:04:07.591Z,15.54
2022-09-13T22:07:09.273Z,15.56
2022-09-13T22:10:11.205Z,15.55
2022-09-13T22:13:12.849Z,15.54
2022-09-13T22:16:26.252Z,15.54
2022-09-13T22:19:28.127Z,15.55
2022-09-13T22:22:29.893Z,15.55
2022-09-13T22:25:32.382Z,15.55
2022-09-13T22:28:34.869Z,15.55
2022-09-13T22:31:39.545Z,15.57
2022-09-13T22:34:41.304Z,15.57
2022-09-13T22:37:43.338Z,15.58
2022-09-13T22:40:45.049Z,15.56
2022-09-13T22:43:47.020Z,15.54
2022-09-13T22:46:48.762Z,15.53
2022-09-13T22:49:50.529Z,15.50
2022-09-13T22:52:52.292Z,15.43
2022-09-13T22:55:54.129Z,15.35
2022-09-13T22:58:58.228Z,15.30
2022-09-13T23:01:59.938Z,15.26
2022-09-13T23:05:21.934Z,15.23
2022-09-13T23:08:39.544Z,15.23
2022-09-13T23:11:41.234Z,15.19
2022-09-13T23:14:46.154Z,15.17
2022-09-13T23:17:48.106Z,15.16
2022-09-13T23:20:56.546Z,15.08
2022-09-13T23:23:59.893Z,14.98
2022-09-13T23:27:01.719Z,14.92
2022-09-13T23:30:03.712Z,14.89
2022-09-13T23:33:08.311Z,14.89
2022-09-13T23:36:12.221Z,14.88
2022-09-13T23:39:17.011Z,14.90
2022-09-13T23:42:18.954Z,14.92
2022-09-13T23:45:20.685Z,14.91
2022-09-13T23:48:23.242Z,14.91
2022-09-13T23:51:26.660Z,14.90
2022-09-13T23:54:28.437Z,14.88
2022-09-13T23:57:30.254Z,14.86
